sensor_id;sensor_type;location;lat;lon;timestamp;pressure;altitude;pressure_sealevel;temperature;humidity
48872;BME280;36154;51.674;7.824;2022-11-14T00:01:55;100868.03;;;19.86;51.62
48872;BME280;36154;51.674;7.824;2022-11-14T00:04:20;100872.41;;;19.84;51.53
48872;BME280;36154;51.674;7.824;2022-11-14T00:06:45;100870.69;;;19.85;51.54
48872;BME280;36154;51.674;7.824;2022-11-14T00:09:11;100870.69;;;19.85;51.61
48872;BME280;36154;51.674;7.824;2022-11-14T00:11:36;100869.81;;;19.84;51.56
48872;BME280;36154;51.674;7.824;2022-11-14T00:14:01;100862.97;;;19.83;51.71
48872;BME280;36154;51.674;7.824;2022-11-14T00:16:27;100868.97;;;19.84;51.54
48872;BME280;36154;51.674;7.824;2022-11-14T00:18:52;100862.97;;;19.83;51.69
48872;BME280;36154;51.674;7.824;2022-11-14T00:21:17;100862.09;;;19.83;51.72
48872;BME280;36154;51.674;7.824;2022-11-14T00:23:43;100860.38;;;19.83;51.49
48872;BME280;36154;51.674;7.824;2022-11-14T00:26:08;100850.91;;;19.82;51.55
48872;BME280;36154;51.674;7.824;2022-11-14T00:28:34;100845.75;;;19.82;51.55
48872;BME280;36154;51.674;7.824;2022-11-14T00:30:59;100843.16;;;19.82;51.63
48872;BME280;36154;51.674;7.824;2022-11-14T00:33:24;100841.44;;;19.81;51.63
48872;BME280;36154;51.674;7.824;2022-11-14T00:35:52;100839.72;;;19.82;51.70
48872;BME280;36154;51.674;7.824;2022-11-14T00:38:17;100838.84;;;19.81;51.79
48872;BME280;36154;51.674;7.824;2022-11-14T00:40:43;100838.84;;;19.81;51.58
48872;BME280;36154;51.674;7.824;2022-11-14T00:43:08;100837.16;;;19.80;51.87
48872;BME280;36154;51.674;7.824;2022-11-14T00:45:33;100835.44;;;19.81;51.72
48872;BME280;36154;51.674;7.824;2022-11-14T00:47:58;100838.00;;;19.81;51.66
48872;BME280;36154;51.674;7.824;2022-11-14T00:50:23;100831.13;;;19.80;51.79
48872;BME280;36154;51.674;7.824;2022-11-14T00:52:49;100829.41;;;19.80;51.63
48872;BME280;36154;51.674;7.824;2022-11-14T00:55:14;100826.81;;;19.80;51.88
48872;BME280;36154;51.674;7.824;2022-11-14T00:57:39;100827.69;;;19.79;51.72
48872;BME280;36154;51.674;7.824;2022-11-14T01:00:05;100818.25;;;19.78;51.67
48872;BME280;36154;51.674;7.824;2022-11-14T01:02:31;100818.25;;;19.78;51.76
48872;BME280;36154;51.674;7.824;2022-11-14T01:04:56;100823.44;;;19.78;51.83
48872;BME280;36154;51.674;7.824;2022-11-14T01:07:21;100821.72;;;19.77;51.75
48872;BME280;36154;51.674;7.824;2022-11-14T01:09:47;100823.44;;;19.78;51.76
48872;BME280;36154;51.674;7.824;2022-11-14T01:12:12;100822.56;;;19.78;51.89
48872;BME280;36154;51.674;7.824;2022-11-14T01:14:38;100816.56;;;19.77;51.96
48872;BME280;36154;51.674;7.824;2022-11-14T01:17:04;100806.22;;;19.77;51.60
48872;BME280;36154;51.674;7.824;2022-11-14T01:19:29;100806.22;;;19.77;51.77
48872;BME280;36154;51.674;7.824;2022-11-14T01:21:55;100808.81;;;19.75;51.85
48872;BME280;36154;51.674;7.824;2022-11-14T01:24:20;100807.09;;;19.76;51.77
48872;BME280;36154;51.674;7.824;2022-11-14T01:26:45;100800.22;;;19.75;51.90
48872;BME280;36154;51.674;7.824;2022-11-14T01:29:10;100794.19;;;19.74;51.79
48872;BME280;36154;51.674;7.824;2022-11-14T01:31:36;100795.91;;;19.75;51.94
48872;BME280;36154;51.674;7.824;2022-11-14T01:34:01;100784.75;;;19.73;51.83
48872;BME280;36154;51.674;7.824;2022-11-14T01:36:26;100776.97;;;19.75;51.86
48872;BME280;36154;51.674;7.824;2022-11-14T01:38:52;100766.63;;;19.75;51.95
48872;BME280;36154;51.674;7.824;2022-11-14T01:41:18;100770.09;;;19.74;51.62
48872;BME280;36154;51.674;7.824;2022-11-14T01:43:43;100769.22;;;19.75;51.99
48872;BME280;36154;51.674;7.824;2022-11-14T01:46:13;100753.69;;;19.75;51.87
48872;BME280;36154;51.674;7.824;2022-11-14T01:51:33;100748.56;;;19.73;51.84
48872;BME280;36154;51.674;7.824;2022-11-14T01:54:04;100742.53;;;19.73;52.03
48872;BME280;36154;51.674;7.824;2022-11-14T01:56:47;100739.94;;;19.73;51.81
48872;BME280;36154;51.674;7.824;2022-11-14T01:59:17;100730.50;;;19.72;51.92
48872;BME280;36154;51.674;7.824;2022-11-14T02:01:49;100737.34;;;19.73;51.81
48872;BME280;36154;51.674;7.824;2022-11-14T02:04:19;100730.50;;;19.72;52.05
48872;BME280;36154;51.674;7.824;2022-11-14T02:06:45;100730.50;;;19.72;51.85
48872;BME280;36154;51.674;7.824;2022-11-14T02:09:11;100727.06;;;19.71;52.09
48872;BME280;36154;51.674;7.824;2022-11-14T02:11:40;100734.84;;;19.71;51.85
48872;BME280;36154;51.674;7.824;2022-11-14T02:14:06;100730.50;;;19.72;52.06
48872;BME280;36154;51.674;7.824;2022-11-14T02:16:32;100730.50;;;19.72;52.04
48872;BME280;36154;51.674;7.824;2022-11-14T02:18:57;100734.84;;;19.71;52.09
48872;BME280;36154;51.674;7.824;2022-11-14T02:21:22;100733.97;;;19.71;52.01
48872;BME280;36154;51.674;7.824;2022-11-14T02:23:47;100735.72;;;19.70;51.96
48872;BME280;36154;51.674;7.824;2022-11-14T02:26:16;100726.19;;;19.71;51.95
48872;BME280;36154;51.674;7.824;2022-11-14T02:28:42;100711.59;;;19.70;52.12
48872;BME280;36154;51.674;7.824;2022-11-14T02:31:07;100716.78;;;19.70;52.02
48872;BME280;36154;51.674;7.824;2022-11-14T02:33:32;100715.06;;;19.69;51.83
48872;BME280;36154;51.674;7.824;2022-11-14T02:35:57;100711.59;;;19.70;52.02
48872;BME280;36154;51.674;7.824;2022-11-14T02:38:23;100709.88;;;19.69;52.29
48872;BME280;36154;51.674;7.824;2022-11-14T02:40:48;100711.66;;;19.67;51.97
48872;BME280;36154;51.674;7.824;2022-11-14T02:43:13;100707.31;;;19.69;52.15
48872;BME280;36154;51.674;7.824;2022-11-14T02:45:39;100702.13;;;19.69;51.84
48872;BME280;36154;51.674;7.824;2022-11-14T02:48:04;100693.53;;;19.68;52.11
48872;BME280;36154;51.674;7.824;2022-11-14T02:50:31;100695.25;;;19.68;51.89
48872;BME280;36154;51.674;7.824;2022-11-14T02:52:56;100698.75;;;19.67;52.05
48872;BME280;36154;51.674;7.824;2022-11-14T02:55:21;100692.66;;;19.68;52.13
48872;BME280;36154;51.674;7.824;2022-11-14T02:57:47;100691.00;;;19.67;52.09
48872;BME280;36154;51.674;7.824;2022-11-14T03:00:12;100691.00;;;19.67;52.15
48872;BME280;36154;51.674;7.824;2022-11-14T03:02:38;100691.91;;;19.64;52.06
48872;BME280;36154;51.674;7.824;2022-11-14T03:05:03;100687.50;;;19.68;51.91
48872;BME280;36154;51.674;7.824;2022-11-14T03:07:29;100695.31;;;19.66;52.10
48872;BME280;36154;51.674;7.824;2022-11-14T03:09:54;100696.16;;;19.67;52.13
48872;BME280;36154;51.674;7.824;2022-11-14T03:12:19;100691.00;;;19.67;52.12
48872;BME280;36154;51.674;7.824;2022-11-14T03:14:45;100691.00;;;19.67;52.14
48872;BME280;36154;51.674;7.824;2022-11-14T03:17:10;100695.31;;;19.66;51.97
48872;BME280;36154;51.674;7.824;2022-11-14T03:19:35;100688.44;;;19.65;52.16
48872;BME280;36154;51.674;7.824;2022-11-14T03:22:01;100678.94;;;19.66;52.05
48872;BME280;36154;51.674;7.824;2022-11-14T03:24:26;100683.28;;;19.65;52.09
48872;BME280;36154;51.674;7.824;2022-11-14T03:26:51;100683.28;;;19.65;52.08
48872;BME280;36154;51.674;7.824;2022-11-14T03:29:17;100682.44;;;19.65;52.21
48872;BME280;36154;51.674;7.824;2022-11-14T03:31:42;100683.28;;;19.65;52.06
48872;BME280;36154;51.674;7.824;2022-11-14T03:34:08;100676.41;;;19.64;52.08
48872;BME280;36154;51.674;7.824;2022-11-14T03:36:34;100679.84;;;19.65;52.01
48872;BME280;36154;51.674;7.824;2022-11-14T03:39:00;100672.97;;;19.64;51.97
48872;BME280;36154;51.674;7.824;2022-11-14T03:41:25;100675.56;;;19.64;52.09
48872;BME280;36154;51.674;7.824;2022-11-14T03:43:50;100673.91;;;19.60;52.11
48872;BME280;36154;51.674;7.824;2022-11-14T03:46:16;100676.44;;;19.63;52.06
48872;BME280;36154;51.674;7.824;2022-11-14T03:48:41;100675.56;;;19.64;52.03
48872;BME280;36154;51.674;7.824;2022-11-14T03:51:07;100673.84;;;19.63;52.02
48872;BME280;36154;51.674;7.824;2022-11-14T03:53:33;100673.84;;;19.63;52.16
48872;BME280;36154;51.674;7.824;2022-11-14T03:55:58;100672.13;;;19.62;51.98
48872;BME280;36154;51.674;7.824;2022-11-14T03:58:23;100666.09;;;19.61;52.04
48872;BME280;36154;51.674;7.824;2022-11-14T04:00:48;100664.38;;;19.62;51.98
48872;BME280;36154;51.674;7.824;2022-11-14T04:03:14;100651.44;;;19.62;51.93
48872;BME280;36154;51.674;7.824;2022-11-14T04:05:42;100646.28;;;19.62;51.94
48872;BME280;36154;51.674;7.824;2022-11-14T04:08:08;100648.94;;;19.58;51.73
48872;BME280;36154;51.674;7.824;2022-11-14T04:10:33;100645.47;;;19.60;52.37
48872;BME280;36154;51.674;7.824;2022-11-14T04:12:58;100637.66;;;19.63;52.08
48872;BME280;36154;51.674;7.824;2022-11-14T04:15:24;100635.00;;;19.66;52.02
48872;BME280;36154;51.674;7.824;2022-11-14T04:17:50;100634.13;;;19.67;51.97
48872;BME280;36154;51.674;7.824;2022-11-14T04:20:15;100640.91;;;19.71;52.19
48872;BME280;36154;51.674;7.824;2022-11-14T04:22:40;100627.94;;;19.72;52.09
48872;BME280;36154;51.674;7.824;2022-11-14T04:25:07;100628.72;;;19.76;52.15
48872;BME280;36154;51.674;7.824;2022-11-14T04:27:33;100625.25;;;19.77;52.01
48872;BME280;36154;51.674;7.824;2022-11-14T04:29:58;100621.72;;;19.80;52.15
48872;BME280;36154;51.674;7.824;2022-11-14T04:32:23;100624.22;;;19.83;51.66
48872;BME280;36154;51.674;7.824;2022-11-14T04:34:48;100628.50;;;19.85;51.92
48872;BME280;36154;51.674;7.824;2022-11-14T04:37:14;100628.41;;;19.88;51.98
48872;BME280;36154;51.674;7.824;2022-11-14T04:39:39;100622.28;;;19.91;52.03
48872;BME280;36154;51.674;7.824;2022-11-14T04:42:04;100621.38;;;19.93;51.95
48872;BME280;36154;51.674;7.824;2022-11-14T04:44:30;100633.31;;;19.98;52.04
48872;BME280;36154;51.674;7.824;2022-11-14T04:46:55;100632.44;;;19.99;51.98
48872;BME280;36154;51.674;7.824;2022-11-14T04:49:21;100626.38;;;20.00;51.96
48872;BME280;36154;51.674;7.824;2022-11-14T04:51:47;100621.13;;;20.03;52.11
48872;BME280;36154;51.674;7.824;2022-11-14T04:54:12;100629.63;;;20.06;52.02
48872;BME280;36154;51.674;7.824;2022-11-14T04:56:38;100622.75;;;20.07;51.86
48872;BME280;36154;51.674;7.824;2022-11-14T04:59:03;100627.84;;;20.10;51.81
48872;BME280;36154;51.674;7.824;2022-11-14T05:01:28;100630.38;;;20.11;51.82
48872;BME280;36154;51.674;7.824;2022-11-14T05:03:54;100617.38;;;20.13;52.04
48872;BME280;36154;51.674;7.824;2022-11-14T05:06:20;100623.34;;;20.17;51.79
48872;BME280;36154;51.674;7.824;2022-11-14T05:08:45;100615.53;;;20.18;51.75
48872;BME280;36154;51.674;7.824;2022-11-14T05:11:13;100609.47;;;20.19;51.58
48872;BME280;36154;51.674;7.824;2022-11-14T05:13:39;100605.97;;;20.22;51.77
48872;BME280;36154;51.674;7.824;2022-11-14T05:16:05;100611.09;;;20.23;51.75
48872;BME280;36154;51.674;7.824;2022-11-14T05:18:30;100611.03;;;20.25;51.69
48872;BME280;36154;51.674;7.824;2022-11-14T05:20:59;100610.16;;;20.26;51.64
48872;BME280;36154;51.674;7.824;2022-11-14T05:23:25;100617.06;;;20.25;51.60
48872;BME280;36154;51.674;7.824;2022-11-14T05:26:00;100614.44;;;20.27;51.61
48872;BME280;36154;51.674;7.824;2022-11-14T05:28:26;100603.22;;;20.26;51.54
48872;BME280;36154;51.674;7.824;2022-11-14T05:30:51;100608.41;;;20.26;51.44
48872;BME280;36154;51.674;7.824;2022-11-14T05:33:17;100609.28;;;20.27;51.47
48872;BME280;36154;51.674;7.824;2022-11-14T05:35:42;100615.31;;;20.26;51.24
48872;BME280;36154;51.674;7.824;2022-11-14T05:38:07;100611.03;;;20.25;51.41
48872;BME280;36154;51.674;7.824;2022-11-14T05:40:32;100608.41;;;20.26;51.40
48872;BME280;36154;51.674;7.824;2022-11-14T05:42:58;100609.31;;;20.25;51.48
48872;BME280;36154;51.674;7.824;2022-11-14T05:45:23;100598.25;;;20.20;51.35
48872;BME280;36154;51.674;7.824;2022-11-14T05:47:51;100598.16;;;20.23;51.40
48872;BME280;36154;51.674;7.824;2022-11-14T05:50:18;100606.81;;;20.22;51.46
48872;BME280;36154;51.674;7.824;2022-11-14T05:52:43;100605.09;;;20.21;51.47
48872;BME280;36154;51.674;7.824;2022-11-14T05:55:08;100606.84;;;20.21;51.38
48872;BME280;36154;51.674;7.824;2022-11-14T05:57:34;100608.63;;;20.19;51.46
48872;BME280;36154;51.674;7.824;2022-11-14T06:00:02;100605.16;;;20.18;51.52
48872;BME280;36154;51.674;7.824;2022-11-14T06:02:27;100608.66;;;20.17;51.43
48872;BME280;36154;51.674;7.824;2022-11-14T06:04:52;100611.25;;;20.17;51.51
48872;BME280;36154;51.674;7.824;2022-11-14T06:07:18;100613.88;;;20.16;51.26
48872;BME280;36154;51.674;7.824;2022-11-14T06:09:43;100625.09;;;20.15;51.34
48872;BME280;36154;51.674;7.824;2022-11-14T06:12:08;100610.50;;;20.13;51.58
48872;BME280;36154;51.674;7.824;2022-11-14T06:14:33;100619.97;;;20.13;51.42
48872;BME280;36154;51.674;7.824;2022-11-14T06:16:59;100612.25;;;20.11;51.52
48872;BME280;36154;51.674;7.824;2022-11-14T06:19:24;100614.00;;;20.11;51.63
48872;BME280;36154;51.674;7.824;2022-11-14T06:21:49;100620.09;;;20.10;51.56
48872;BME280;36154;51.674;7.824;2022-11-14T06:24:15;100610.63;;;20.09;51.49
48872;BME280;36154;51.674;7.824;2022-11-14T06:26:40;100608.91;;;20.08;51.60
48872;BME280;36154;51.674;7.824;2022-11-14T06:29:05;100607.22;;;20.07;51.55
48872;BME280;36154;51.674;7.824;2022-11-14T06:31:31;100613.25;;;20.07;51.58
48872;BME280;36154;51.674;7.824;2022-11-14T06:33:57;100613.28;;;20.06;51.44
48872;BME280;36154;51.674;7.824;2022-11-14T06:36:22;100607.31;;;20.04;51.42
48872;BME280;36154;51.674;7.824;2022-11-14T06:38:48;100602.13;;;20.04;51.25
48872;BME280;36154;51.674;7.824;2022-11-14T06:41:14;100606.44;;;20.05;51.56
48872;BME280;36154;51.674;7.824;2022-11-14T06:43:42;100602.13;;;20.04;51.46
48872;BME280;36154;51.674;7.824;2022-11-14T06:46:09;100609.06;;;20.03;51.37
48872;BME280;36154;51.674;7.824;2022-11-14T06:48:35;100605.59;;;20.03;51.54
48872;BME280;36154;51.674;7.824;2022-11-14T06:51:02;100601.34;;;20.02;51.74
48872;BME280;36154;51.674;7.824;2022-11-14T06:53:30;100598.75;;;20.02;51.57
48872;BME280;36154;51.674;7.824;2022-11-14T06:56:03;100600.50;;;20.00;51.67
48872;BME280;36154;51.674;7.824;2022-11-14T06:58:31;100606.53;;;20.00;51.62
48872;BME280;36154;51.674;7.824;2022-11-14T07:01:11;100604.00;;;19.99;51.64
48872;BME280;36154;51.674;7.824;2022-11-14T07:03:37;100602.28;;;19.98;51.04
48872;BME280;36154;51.674;7.824;2022-11-14T07:06:03;100596.28;;;19.97;51.77
48872;BME280;36154;51.674;7.824;2022-11-14T07:08:30;100604.88;;;19.98;51.61
48872;BME280;36154;51.674;7.824;2022-11-14T07:13:27;100607.53;;;19.94;51.67
48872;BME280;36154;51.674;7.824;2022-11-14T07:15:54;100589.44;;;19.94;51.68
48872;BME280;36154;51.674;7.824;2022-11-14T07:18:19;100591.16;;;19.96;51.77
48872;BME280;36154;51.674;7.824;2022-11-14T07:20:45;100588.50;;;19.99;51.79
48872;BME280;36154;51.674;7.824;2022-11-14T07:23:11;100592.72;;;20.01;51.78
48872;BME280;36154;51.674;7.824;2022-11-14T07:25:36;100583.16;;;20.05;51.59
48872;BME280;36154;51.674;7.824;2022-11-14T07:28:02;100567.53;;;20.08;51.58
48872;BME280;36154;51.674;7.824;2022-11-14T07:30:27;100570.00;;;20.12;51.62
48872;BME280;36154;51.674;7.824;2022-11-14T07:32:55;100569.94;;;20.14;51.56
48872;BME280;36154;51.674;7.824;2022-11-14T07:35:21;100574.25;;;20.15;51.57
48872;BME280;36154;51.674;7.824;2022-11-14T07:37:47;100579.31;;;20.18;51.54
48872;BME280;36154;51.674;7.824;2022-11-14T07:40:12;100581.84;;;20.20;51.50
48872;BME280;36154;51.674;7.824;2022-11-14T07:42:38;100597.25;;;20.24;51.50
48872;BME280;36154;51.674;7.824;2022-11-14T07:45:03;100588.63;;;20.25;51.45
48872;BME280;36154;51.674;7.824;2022-11-14T07:47:29;100588.50;;;20.30;51.38
48872;BME280;36154;51.674;7.824;2022-11-14T07:49:54;100591.84;;;20.34;51.41
48872;BME280;36154;51.674;7.824;2022-11-14T07:52:19;100586.63;;;20.35;51.42
48872;BME280;36154;51.674;7.824;2022-11-14T07:54:45;100584.81;;;20.37;51.25
48872;BME280;36154;51.674;7.824;2022-11-14T07:57:10;100587.38;;;20.39;51.22
48872;BME280;36154;51.674;7.824;2022-11-14T07:59:35;100585.56;;;20.41;51.14
48872;BME280;36154;51.674;7.824;2022-11-14T08:02:00;100581.25;;;20.41;51.12
48872;BME280;36154;51.674;7.824;2022-11-14T08:04:26;100575.19;;;20.42;51.03
48872;BME280;36154;51.674;7.824;2022-11-14T08:06:51;100578.59;;;20.43;50.97
48872;BME280;36154;51.674;7.824;2022-11-14T08:09:17;100591.50;;;20.44;51.07
48872;BME280;36154;51.674;7.824;2022-11-14T08:11:42;100575.16;;;20.44;51.11
48872;BME280;36154;51.674;7.824;2022-11-14T08:14:14;100563.09;;;20.43;50.92
48872;BME280;36154;51.674;7.824;2022-11-14T08:16:40;100568.25;;;20.43;50.70
48872;BME280;36154;51.674;7.824;2022-11-14T08:19:05;100573.44;;;20.43;50.78
48872;BME280;36154;51.674;7.824;2022-11-14T08:21:31;100573.44;;;20.43;50.87
48872;BME280;36154;51.674;7.824;2022-11-14T08:23:56;100566.59;;;20.42;50.76
48872;BME280;36154;51.674;7.824;2022-11-14T08:26:21;100564.88;;;20.41;50.80
48872;BME280;36154;51.674;7.824;2022-11-14T08:28:46;100559.69;;;20.41;50.68
48872;BME280;36154;51.674;7.824;2022-11-14T08:31:12;100554.53;;;20.41;50.74
48872;BME280;36154;51.674;7.824;2022-11-14T08:33:38;100553.72;;;20.39;50.78
48872;BME280;36154;51.674;7.824;2022-11-14T08:36:05;100550.28;;;20.38;50.63
48872;BME280;36154;51.674;7.824;2022-11-14T08:38:32;100559.78;;;20.38;50.71
48872;BME280;36154;51.674;7.824;2022-11-14T08:40:58;100564.13;;;20.37;50.62
48872;BME280;36154;51.674;7.824;2022-11-14T08:43:24;100568.47;;;20.37;50.69
48872;BME280;36154;51.674;7.824;2022-11-14T08:45:50;100563.28;;;20.37;50.78
48872;BME280;36154;51.674;7.824;2022-11-14T08:48:15;100566.75;;;20.36;50.99
48872;BME280;36154;51.674;7.824;2022-11-14T08:50:40;100566.75;;;20.36;50.76
48872;BME280;36154;51.674;7.824;2022-11-14T08:53:06;100562.47;;;20.35;50.81
48872;BME280;36154;51.674;7.824;2022-11-14T08:55:31;100559.88;;;20.35;50.83
48872;BME280;36154;51.674;7.824;2022-11-14T08:57:56;100584.06;;;20.34;50.97
48872;BME280;36154;51.674;7.824;2022-11-14T09:00:22;100587.50;;;20.34;51.02
48872;BME280;36154;51.674;7.824;2022-11-14T09:02:47;100590.13;;;20.33;50.77
48872;BME280;36154;51.674;7.824;2022-11-14T09:05:12;100590.97;;;20.33;50.91
48872;BME280;36154;51.674;7.824;2022-11-14T09:07:38;100585.81;;;20.31;50.93
48872;BME280;36154;51.674;7.824;2022-11-14T09:10:03;100584.16;;;20.30;51.02
48872;BME280;36154;51.674;7.824;2022-11-14T09:12:29;100587.63;;;20.29;51.00
48872;BME280;36154;51.674;7.824;2022-11-14T09:14:54;100579.84;;;20.29;51.05
48872;BME280;36154;51.674;7.824;2022-11-14T09:17:20;100582.44;;;20.29;51.05
48872;BME280;36154;51.674;7.824;2022-11-14T09:19:45;100589.41;;;20.27;50.90
48872;BME280;36154;51.674;7.824;2022-11-14T09:22:10;100581.66;;;20.27;50.98
48872;BME280;36154;51.674;7.824;2022-11-14T09:24:35;100579.94;;;20.26;51.10
48872;BME280;36154;51.674;7.824;2022-11-14T09:27:01;100582.53;;;20.26;51.12
48872;BME280;36154;51.674;7.824;2022-11-14T09:29:26;100580.84;;;20.25;51.07
48872;BME280;36154;51.674;7.824;2022-11-14T09:31:51;100586.91;;;20.24;51.07
48872;BME280;36154;51.674;7.824;2022-11-14T09:34:19;100586.91;;;20.24;51.07
48872;BME280;36154;51.674;7.824;2022-11-14T09:36:44;100587.81;;;20.23;51.11
48872;BME280;36154;51.674;7.824;2022-11-14T09:39:10;100584.31;;;20.24;51.29
48872;BME280;36154;51.674;7.824;2022-11-14T09:44:46;100579.22;;;20.21;50.75
48872;BME280;36154;51.674;7.824;2022-11-14T09:47:17;100574.09;;;20.20;51.03
48872;BME280;36154;51.674;7.824;2022-11-14T09:49:46;100570.66;;;20.19;50.95
48872;BME280;36154;51.674;7.824;2022-11-14T09:52:40;100563.78;;;20.18;51.06
48872;BME280;36154;51.674;7.824;2022-11-14T09:55:22;100559.53;;;20.17;51.08
48872;BME280;36154;51.674;7.824;2022-11-14T09:57:48;100551.75;;;20.17;51.07
48872;BME280;36154;51.674;7.824;2022-11-14T10:00:18;100561.28;;;20.17;51.01
48872;BME280;36154;51.674;7.824;2022-11-14T10:08:21;100541.50;;;20.14;50.72
48872;BME280;36154;51.674;7.824;2022-11-14T10:11:07;100552.72;;;20.13;50.97
48872;BME280;36154;51.674;7.824;2022-11-14T10:19:09;100563.06;;;20.13;51.19
48872;BME280;36154;51.674;7.824;2022-11-14T10:21:57;100562.19;;;20.14;51.15
48872;BME280;36154;51.674;7.824;2022-11-14T10:27:18;100557.03;;;20.14;51.29
48872;BME280;36154;51.674;7.824;2022-11-14T10:32:44;100572.50;;;20.16;51.16
48872;BME280;36154;51.674;7.824;2022-11-14T10:35:20;100572.53;;;20.14;51.47
48872;BME280;36154;51.674;7.824;2022-11-14T10:40:48;100586.28;;;20.16;51.16
48872;BME280;36154;51.674;7.824;2022-11-14T10:43:29;100580.25;;;20.16;51.13
48872;BME280;36154;51.674;7.824;2022-11-14T10:46:02;100575.09;;;20.16;50.99
48872;BME280;36154;51.674;7.824;2022-11-14T10:48:41;100575.09;;;20.16;51.08
48872;BME280;36154;51.674;7.824;2022-11-14T10:53:51;100556.94;;;20.17;51.09
48872;BME280;36154;51.674;7.824;2022-11-14T10:56:18;100535.31;;;20.18;50.91
48872;BME280;36154;51.674;7.824;2022-11-14T10:58:44;100548.25;;;20.18;50.93
48872;BME280;36154;51.674;7.824;2022-11-14T11:01:32;100541.41;;;20.17;50.92
48872;BME280;36154;51.674;7.824;2022-11-14T11:04:16;100546.63;;;20.16;51.13
48872;BME280;36154;51.674;7.824;2022-11-14T11:06:44;100532.84;;;20.15;51.28
48872;BME280;36154;51.674;7.824;2022-11-14T11:09:17;100525.09;;;20.15;51.00
48872;BME280;36154;51.674;7.824;2022-11-14T11:12:02;100515.53;;;20.17;50.81
48872;BME280;36154;51.674;7.824;2022-11-14T11:14:29;100502.63;;;20.17;50.86
48872;BME280;36154;51.674;7.824;2022-11-14T11:19:35;100492.13;;;20.22;51.13
48872;BME280;36154;51.674;7.824;2022-11-14T11:22:00;100487.72;;;20.25;51.07
48872;BME280;36154;51.674;7.824;2022-11-14T11:24:30;100497.97;;;20.28;51.30
48872;BME280;36154;51.674;7.824;2022-11-14T11:29:44;100477.06;;;20.35;51.06
48872;BME280;36154;51.674;7.824;2022-11-14T11:32:10;100461.38;;;20.41;51.09
48872;BME280;36154;51.674;7.824;2022-11-14T11:34:35;100461.28;;;20.44;51.03
48872;BME280;36154;51.674;7.824;2022-11-14T11:37:20;100453.41;;;20.48;51.22
48872;BME280;36154;51.674;7.824;2022-11-14T11:39:51;100450.66;;;20.53;50.97
48872;BME280;36154;51.674;7.824;2022-11-14T11:42:23;100452.28;;;20.57;51.20
48872;BME280;36154;51.674;7.824;2022-11-14T11:44:54;100458.19;;;20.61;51.10
48872;BME280;36154;51.674;7.824;2022-11-14T11:47:24;100464.94;;;20.65;51.34
48872;BME280;36154;51.674;7.824;2022-11-14T11:49:51;100460.53;;;20.68;51.04
48872;BME280;36154;51.674;7.824;2022-11-14T11:52:25;100450.06;;;20.72;50.94
48872;BME280;36154;51.674;7.824;2022-11-14T11:54:58;100454.25;;;20.76;51.03
48872;BME280;36154;51.674;7.824;2022-11-14T11:57:31;100451.56;;;20.79;50.91
48872;BME280;36154;51.674;7.824;2022-11-14T12:00:14;100456.63;;;20.82;50.80
48872;BME280;36154;51.674;7.824;2022-11-14T12:02:44;100462.59;;;20.85;50.76
48872;BME280;36154;51.674;7.824;2022-11-14T12:05:16;100460.81;;;20.86;50.69
48872;BME280;36154;51.674;7.824;2022-11-14T12:08:05;100464.06;;;20.93;50.81
48872;BME280;36154;51.674;7.824;2022-11-14T12:10:36;100468.28;;;20.95;50.59
48872;BME280;36154;51.674;7.824;2022-11-14T12:16:05;100471.47;;;21.03;50.52
48872;BME280;36154;51.674;7.824;2022-11-14T12:25:29;100450.44;;;21.13;50.67
48872;BME280;36154;51.674;7.824;2022-11-14T12:27:48;100452.00;;;21.17;50.35
48872;BME280;36154;51.674;7.824;2022-11-14T12:30:20;100451.91;;;21.20;50.31
48872;BME280;36154;51.674;7.824;2022-11-14T12:32:57;100449.16;;;21.24;50.28
48872;BME280;36154;51.674;7.824;2022-11-14T12:35:27;100451.63;;;21.29;50.13
48872;BME280;36154;51.674;7.824;2022-11-14T12:37:55;100447.19;;;21.33;50.22
48872;BME280;36154;51.674;7.824;2022-11-14T12:40:33;100446.16;;;21.37;50.03
48872;BME280;36154;51.674;7.824;2022-11-14T12:43:03;100458.97;;;21.41;50.01
48872;BME280;36154;51.674;7.824;2022-11-14T12:48:22;100459.56;;;21.50;49.96
48872;BME280;36154;51.674;7.824;2022-11-14T12:50:54;100457.63;;;21.55;49.81
48872;BME280;36154;51.674;7.824;2022-11-14T12:59:08;100439.69;;;21.49;49.71
48872;BME280;36154;51.674;7.824;2022-11-14T13:12:34;100407.41;;;21.34;49.83
48872;BME280;36154;51.674;7.824;2022-11-14T13:15:32;100381.91;;;21.47;49.56
48872;BME280;36154;51.674;7.824;2022-11-14T13:21:12;100384.53;;;22.37;47.94
48872;BME280;36154;51.674;7.824;2022-11-14T13:23:58;100382.50;;;22.23;48.19
48872;BME280;36154;51.674;7.824;2022-11-14T13:28:50;100377.38;;;23.05;46.32
48872;BME280;36154;51.674;7.824;2022-11-14T13:36:57;100384.38;;;23.23;45.99
48872;BME280;36154;51.674;7.824;2022-11-14T13:45:04;100365.75;;;23.90;44.36
48872;BME280;36154;51.674;7.824;2022-11-14T13:50:35;100364.56;;;24.33;43.82
48872;BME280;36154;51.674;7.824;2022-11-14T13:53:02;100365.66;;;24.47;43.08
48872;BME280;36154;51.674;7.824;2022-11-14T13:55:57;100363.34;;;24.58;43.04
48872;BME280;36154;51.674;7.824;2022-11-14T13:58:41;100358.59;;;24.49;42.78
48872;BME280;36154;51.674;7.824;2022-11-14T14:04:08;100354.94;;;23.99;44.17
48872;BME280;36154;51.674;7.824;2022-11-14T14:10:02;100347.22;;;23.40;45.13
48872;BME280;36154;51.674;7.824;2022-11-14T14:15:29;100342.69;;;23.06;45.76
48872;BME280;36154;51.674;7.824;2022-11-14T14:18:00;100355.56;;;22.88;46.16
48872;BME280;36154;51.674;7.824;2022-11-14T14:26:03;100345.53;;;22.38;46.96
48872;BME280;36154;51.674;7.824;2022-11-14T14:31:18;100354.50;;;22.09;47.46
48872;BME280;36154;51.674;7.824;2022-11-14T14:33:48;100351.44;;;21.97;47.53
48872;BME280;36154;51.674;7.824;2022-11-14T14:36:24;100368.22;;;21.89;48.00